Time;durP1;ratioP1;P1;durP2;ratioP2;P2;SDS_P1;SDS_P2;PMS_P1;PMS_P2;Temp;Humidity;BMP_temperature;BMP_pressure;BME280_temperature;BME280_humidity;BME280_pressure;Samples;Min_cycle;Max_cycle;Signal;HPM_P1;HPM_P2
2022/12/29 00:01:14;;;;;;;2.30;1.83;;;7.80;99.90;;;;;;5015883;28;20193;-80
2022/12/29 00:03:39;;;;;;;2.20;1.83;;;7.90;99.90;;;;;;4997891;28;20179;-79
2022/12/29 00:06:05;;;;;;;2.40;1.77;;;7.80;99.90;;;;;;4998153;28;20174;-80
2022/12/29 00:08:39;;;;;;;3.00;2.10;;;7.80;99.90;;;;;;5015885;28;20183;-79
2022/12/29 00:11:07;;;;;;;2.37;1.93;;;7.80;99.90;;;;;;4998312;28;20186;-79
2022/12/29 00:16:17;;;;;;;3.50;2.10;;;7.80;99.90;;;;;;5034945;28;20241;-80
2022/12/29 00:18:42;;;;;;;2.97;1.90;;;7.90;99.90;;;;;;5017266;28;20655;-80
2022/12/29 00:45:42;;;;;;;2.30;1.70;;;8.20;99.90;;;;;;5034851;28;20545;-81
2022/12/29 00:48:08;;;;;;;4.00;2.00;;;8.30;99.90;;;;;;5034656;28;20179;-81
2022/12/29 00:50:33;;;;;;;2.30;1.67;;;8.40;99.90;;;;;;5017258;28;20229;-80
2022/12/29 00:52:59;;;;;;;1.93;1.60;;;8.40;99.90;;;;;;5006347;28;20187;-81
2022/12/29 00:55:24;;;;;;;2.60;1.70;;;8.40;99.90;;;;;;5014928;28;20172;-81
2022/12/29 00:57:50;;;;;;;2.17;1.80;;;8.40;99.90;;;;;;4997019;28;20171;-81
2022/12/29 01:00:15;;;;;;;3.47;1.80;;;8.40;99.90;;;;;;5015057;28;20172;-81
2022/12/29 01:02:41;;;;;;;1.87;1.70;;;8.30;99.90;;;;;;5014182;28;20192;-80
2022/12/29 01:05:07;;;;;;;2.60;1.90;;;8.30;99.90;;;;;;5015039;28;20262;-81
2022/12/29 01:07:32;;;;;;;2.40;1.80;;;8.40;99.90;;;;;;5029227;28;20186;-80
2022/12/29 01:10:10;;;;;;;1.70;1.60;;;8.40;99.90;;;;;;5034322;28;20638;-81
2022/12/29 01:12:43;;;;;;;2.10;1.73;;;8.50;99.90;;;;;;5015735;28;20207;-80
2022/12/29 01:15:11;;;;;;;2.00;1.80;;;8.50;99.90;;;;;;5034330;28;20294;-81
2022/12/29 01:17:36;;;;;;;1.83;1.60;;;8.70;99.90;;;;;;5034392;28;20230;-81
2022/12/29 01:20:03;;;;;;;2.47;1.77;;;8.80;99.90;;;;;;5016399;28;20172;-81
2022/12/29 01:22:28;;;;;;;2.90;1.80;;;9.00;99.90;;;;;;5016121;28;20709;-81
2022/12/29 01:24:54;;;;;;;2.27;1.70;;;9.10;99.90;;;;;;5016734;28;20181;-81
2022/12/29 01:27:19;;;;;;;2.47;1.90;;;9.20;99.90;;;;;;5016801;28;20632;-81
2022/12/29 01:29:45;;;;;;;3.37;1.90;;;9.20;99.90;;;;;;5034498;28;20273;-81
2022/12/29 01:32:10;;;;;;;3.40;2.50;;;9.20;99.90;;;;;;5016568;28;20211;-81
2022/12/29 01:34:36;;;;;;;3.33;2.00;;;9.30;99.90;;;;;;5034158;28;20218;-81
2022/12/29 01:37:01;;;;;;;4.63;1.70;;;9.40;99.90;;;;;;5016805;28;20231;-82
2022/12/29 01:39:27;;;;;;;4.37;1.60;;;9.40;99.90;;;;;;5016360;28;20206;-81
2022/12/29 01:41:52;;;;;;;1.83;1.60;;;9.50;99.90;;;;;;5017014;28;20176;-81
2022/12/29 01:44:46;;;;;;;2.70;1.70;;;9.50;99.90;;;;;;5016934;28;20201;-81
2022/12/29 01:47:14;;;;;;;3.97;1.90;;;9.40;99.90;;;;;;5017300;28;20227;-81
2022/12/29 01:49:39;;;;;;;3.57;1.80;;;9.40;99.90;;;;;;5035224;28;20177;-81
2022/12/29 01:52:07;;;;;;;4.13;1.70;;;9.30;99.90;;;;;;5034666;28;20288;-81
2022/12/29 01:54:48;;;;;;;2.07;1.50;;;9.40;99.90;;;;;;5016062;28;20181;-82
2022/12/29 01:57:20;;;;;;;3.17;1.80;;;9.30;99.90;;;;;;5034886;28;20174;-80
2022/12/29 02:00:05;;;;;;;1.97;1.73;;;9.30;99.90;;;;;;5016760;28;20235;-82
2022/12/29 02:02:31;;;;;;;2.93;1.90;;;9.20;99.90;;;;;;5016266;28;20572;-82
2022/12/29 02:04:59;;;;;;;2.50;1.90;;;9.20;99.90;;;;;;5016729;28;20169;-80
2022/12/29 02:07:27;;;;;;;3.30;1.80;;;9.20;99.90;;;;;;5017652;28;20188;-82
2022/12/29 02:09:54;;;;;;;2.57;1.60;;;9.20;99.90;;;;;;5035696;28;20178;-79
2022/12/29 02:12:22;;;;;;;2.87;1.70;;;9.10;99.90;;;;;;5032311;28;20213;-82
2022/12/29 02:14:53;;;;;;;2.27;1.70;;;9.10;99.90;;;;;;5015334;28;20633;-81
2022/12/29 02:17:33;;;;;;;1.93;1.53;;;9.10;99.90;;;;;;5015127;28;20197;-82
2022/12/29 02:20:14;;;;;;;3.60;1.63;;;9.10;99.90;;;;;;5032975;28;20274;-81
2022/12/29 02:22:49;;;;;;;1.73;1.40;;;9.10;99.90;;;;;;5014564;28;20196;-81
2022/12/29 02:25:56;;;;;;;1.73;1.57;;;9.10;99.90;;;;;;5015336;28;20211;-79
2022/12/29 02:28:46;;;;;;;1.70;1.50;;;9.10;99.90;;;;;;5019252;28;20691;-82
2022/12/29 02:31:34;;;;;;;2.10;1.40;;;9.10;99.90;;;;;;5014976;28;20197;-81
2022/12/29 02:34:21;;;;;;;2.07;1.70;;;9.10;99.90;;;;;;5014317;28;20206;-81
2022/12/29 02:37:12;;;;;;;2.20;1.77;;;9.10;99.90;;;;;;5014762;28;20167;-81
2022/12/29 02:39:52;;;;;;;2.07;1.60;;;9.10;99.90;;;;;;5014985;28;20201;-81
2022/12/29 02:42:39;;;;;;;1.83;1.70;;;9.10;99.90;;;;;;5014551;28;20666;-81
2022/12/29 02:45:15;;;;;;;2.30;1.80;;;9.10;99.90;;;;;;5032783;28;20165;-81
2022/12/29 02:47:55;;;;;;;2.03;1.63;;;9.10;99.90;;;;;;5014673;28;20173;-79
2022/12/29 02:50:27;;;;;;;2.10;1.60;;;9.20;99.90;;;;;;5015920;28;20260;-79
2022/12/29 02:53:01;;;;;;;2.80;1.63;;;9.20;99.90;;;;;;5036198;28;20217;-80
2022/12/29 02:55:26;;;;;;;1.87;1.60;;;9.20;99.90;;;;;;5036951;28;20217;-81
2022/12/29 02:58:17;;;;;;;2.53;1.90;;;9.20;99.90;;;;;;5036814;28;20180;-81
2022/12/29 03:01:18;;;;;;;2.00;1.80;;;9.20;99.90;;;;;;5018950;28;20177;-82
2022/12/29 03:04:13;;;;;;;3.37;1.50;;;9.20;99.90;;;;;;5018299;28;20662;-81
2022/12/29 03:06:41;;;;;;;2.80;1.50;;;9.20;99.90;;;;;;5036539;28;20189;-81
2022/12/29 03:09:37;;;;;;;1.67;1.57;;;9.30;99.90;;;;;;5036117;28;20553;-81
2022/12/29 03:18:51;;;;;;;2.07;1.33;;;9.30;99.90;;;;;;5036692;28;20230;-80
2022/12/29 03:24:27;;;;;;;2.47;1.40;;;9.30;99.90;;;;;;5035673;28;20157;-81
2022/12/29 03:26:56;;;;;;;1.43;1.30;;;9.30;99.90;;;;;;5018209;28;20228;-81
2022/12/29 03:29:23;;;;;;;2.50;1.63;;;9.30;99.90;;;;;;5036099;28;20544;-80
2022/12/29 03:31:51;;;;;;;2.27;1.30;;;9.30;99.90;;;;;;5018051;28;20186;-81
2022/12/29 03:34:20;;;;;;;2.63;1.63;;;9.40;99.90;;;;;;5035396;28;20188;-79
2022/12/29 03:37:01;;;;;;;1.30;1.20;;;9.50;99.90;;;;;;5018004;28;20552;-81
2022/12/29 03:39:26;;;;;;;1.80;1.50;;;9.50;99.90;;;;;;5018177;28;20292;-81
2022/12/29 03:41:59;;;;;;;1.40;1.30;;;9.50;99.90;;;;;;5035846;28;20271;-82
2022/12/29 03:44:40;;;;;;;1.73;1.50;;;9.60;99.90;;;;;;5035678;28;20280;-81
2022/12/29 03:47:07;;;;;;;1.47;1.33;;;9.60;99.90;;;;;;5038249;28;20173;-81
2022/12/29 03:49:32;;;;;;;2.10;1.20;;;9.60;99.90;;;;;;5045642;28;20193;-81
2022/12/29 03:51:58;;;;;;;1.50;1.30;;;9.60;99.90;;;;;;5017385;28;20175;-82
2022/12/29 03:54:24;;;;;;;4.00;1.43;;;9.60;99.90;;;;;;5017583;28;20197;-82
2022/12/29 03:56:50;;;;;;;2.53;1.40;;;9.60;99.90;;;;;;5018053;28;20259;-82
2022/12/29 03:59:15;;;;;;;3.30;1.40;;;9.60;99.90;;;;;;5035472;28;20250;-82
2022/12/29 04:01:41;;;;;;;1.70;1.20;;;9.60;99.90;;;;;;5035589;28;20285;-79
2022/12/29 04:04:07;;;;;;;2.07;1.33;;;9.60;99.90;;;;;;5017467;28;20185;-81
2022/12/29 04:06:32;;;;;;;2.20;1.30;;;9.70;99.90;;;;;;5018124;28;20174;-81
2022/12/29 04:08:58;;;;;;;2.63;1.40;;;9.70;99.90;;;;;;5018550;28;20179;-81
2022/12/29 04:11:23;;;;;;;1.70;1.33;;;9.70;99.90;;;;;;5018641;28;20181;-81
2022/12/29 04:13:49;;;;;;;1.30;1.20;;;9.70;99.90;;;;;;5018207;28;20303;-81
2022/12/29 04:16:15;;;;;;;2.67;1.17;;;9.70;99.90;;;;;;5036097;28;20178;-81
2022/12/29 04:18:40;;;;;;;1.50;1.20;;;9.80;99.90;;;;;;5036179;28;20223;-81
2022/12/29 04:21:06;;;;;;;2.40;1.23;;;9.70;99.90;;;;;;5036079;28;20264;-81
2022/12/29 04:23:35;;;;;;;1.30;1.20;;;9.70;99.90;;;;;;5017742;28;20185;-82
2022/12/29 04:26:01;;;;;;;1.30;1.20;;;9.70;99.90;;;;;;5035480;28;20253;-81
2022/12/29 04:28:27;;;;;;;2.07;1.50;;;9.70;99.90;;;;;;5018505;28;20652;-82
2022/12/29 04:30:52;;;;;;;1.50;1.30;;;9.80;99.90;;;;;;5018698;28;20216;-82
2022/12/29 04:33:19;;;;;;;1.83;1.47;;;9.80;99.90;;;;;;5035181;28;20237;-82
2022/12/29 04:35:44;;;;;;;1.77;1.40;;;9.90;99.90;;;;;;5036109;28;20185;-82
2022/12/29 04:38:10;;;;;;;1.67;1.23;;;9.70;99.90;;;;;;5036074;28;20197;-82
2022/12/29 04:40:38;;;;;;;2.17;1.30;;;9.70;99.90;;;;;;5018220;28;20181;-82
2022/12/29 04:43:04;;;;;;;1.80;1.10;;;9.80;99.90;;;;;;5035084;28;20194;-82
2022/12/29 04:45:29;;;;;;;1.47;1.17;;;9.80;99.90;;;;;;5017986;28;20232;-82
2022/12/29 04:47:55;;;;;;;3.00;1.37;;;9.80;99.90;;;;;;5017724;28;20177;-81
2022/12/29 04:50:21;;;;;;;2.70;1.40;;;9.80;99.90;;;;;;5017971;28;20171;-81
2022/12/29 04:52:46;;;;;;;1.10;1.00;;;9.80;99.90;;;;;;5017268;28;20194;-82
2022/12/29 04:55:12;;;;;;;1.30;1.20;;;9.80;99.90;;;;;;5035738;28;20166;-81
2022/12/29 04:57:37;;;;;;;1.80;1.40;;;9.80;99.90;;;;;;5019635;28;20166;-82
2022/12/29 05:00:04;;;;;;;1.30;1.13;;;9.80;99.90;;;;;;5021159;28;20198;-82
2022/12/29 05:02:30;;;;;;;1.43;1.20;;;9.90;99.90;;;;;;5033451;28;20194;-81
2022/12/29 05:04:55;;;;;;;1.33;1.13;;;9.90;99.90;;;;;;5034110;28;20537;-82
2022/12/29 05:07:21;;;;;;;1.53;1.20;;;9.80;99.90;;;;;;5016054;28;20174;-80
2022/12/29 05:09:46;;;;;;;1.97;1.30;;;9.80;99.90;;;;;;5016456;28;20167;-82
2022/12/29 05:12:12;;;;;;;2.53;1.40;;;9.80;99.90;;;;;;5033661;28;20229;-82
2022/12/29 05:14:37;;;;;;;2.87;1.40;;;9.80;99.90;;;;;;5015685;28;20182;-81
2022/12/29 05:17:03;;;;;;;2.53;1.37;;;9.80;99.90;;;;;;5034094;28;20186;-82
2022/12/29 05:19:28;;;;;;;2.27;1.30;;;9.90;99.90;;;;;;5016045;28;20209;-80
2022/12/29 05:21:54;;;;;;;1.93;1.57;;;9.90;99.90;;;;;;5016090;28;20178;-81
2022/12/29 05:24:20;;;;;;;1.27;1.17;;;10.00;99.90;;;;;;5033296;28;20200;-81
2022/12/29 05:26:45;;;;;;;1.73;1.30;;;10.00;99.90;;;;;;5016225;28;20177;-81
2022/12/29 05:29:11;;;;;;;4.27;1.53;;;10.00;99.90;;;;;;5016078;28;20177;-81
2022/12/29 05:31:36;;;;;;;1.60;1.30;;;10.00;99.90;;;;;;5033530;28;20185;-81
2022/12/29 05:34:02;;;;;;;1.90;1.50;;;10.00;99.90;;;;;;5033019;28;20193;-81
2022/12/29 05:36:28;;;;;;;1.30;1.20;;;10.00;99.90;;;;;;5033598;28;20232;-81
2022/12/29 05:38:53;;;;;;;2.30;1.20;;;10.00;99.90;;;;;;5033468;28;20202;-80
2022/12/29 05:41:19;;;;;;;2.07;1.20;;;10.00;99.90;;;;;;5033872;28;20185;-81
2022/12/29 05:43:44;;;;;;;1.77;1.30;;;10.00;99.90;;;;;;5032964;28;20305;-81
2022/12/29 05:46:10;;;;;;;3.13;1.40;;;10.00;99.90;;;;;;5014574;28;20227;-81
2022/12/29 05:48:36;;;;;;;2.20;1.53;;;10.00;99.90;;;;;;5033726;28;20181;-82
2022/12/29 05:51:01;;;;;;;2.50;1.30;;;10.00;99.90;;;;;;5015927;28;20261;-82
2022/12/29 05:53:27;;;;;;;1.70;1.47;;;10.00;99.90;;;;;;5015214;28;20198;-82
2022/12/29 05:55:52;;;;;;;2.40;1.33;;;10.00;99.90;;;;;;5015660;28;20177;-82
2022/12/29 05:58:18;;;;;;;3.33;1.33;;;10.00;99.90;;;;;;5033720;28;20193;-83
2022/12/29 06:00:44;;;;;;;2.17;1.30;;;10.00;99.90;;;;;;5015765;28;20170;-81
2022/12/29 06:03:10;;;;;;;1.23;1.13;;;10.00;99.90;;;;;;5014970;28;20664;-81
2022/12/29 06:05:35;;;;;;;1.97;1.30;;;10.10;99.90;;;;;;5033229;28;20240;-82
2022/12/29 06:08:01;;;;;;;2.07;1.20;;;10.10;99.90;;;;;;5015408;28;20196;-79
2022/12/29 06:10:27;;;;;;;2.40;1.40;;;10.10;99.90;;;;;;5033721;28;20174;-78
2022/12/29 06:12:52;;;;;;;1.60;1.30;;;10.10;99.90;;;;;;5073497;22;20237;-80
2022/12/29 06:15:18;;;;;;;2.47;1.47;;;10.10;99.90;;;;;;5033174;28;20163;-79
2022/12/29 06:17:44;;;;;;;1.37;1.27;;;10.10;99.90;;;;;;5015704;28;20173;-79
2022/12/29 06:20:10;;;;;;;1.70;1.10;;;10.20;99.90;;;;;;5015838;28;20240;-79
2022/12/29 06:22:36;;;;;;;3.00;1.40;;;10.20;99.90;;;;;;5032591;28;20265;-77
2022/12/29 06:25:02;;;;;;;1.80;1.30;;;10.20;99.90;;;;;;5032851;28;20593;-80
2022/12/29 06:27:28;;;;;;;1.47;1.23;;;10.10;99.90;;;;;;5033085;28;20173;-78
2022/12/29 06:29:53;;;;;;;1.83;1.30;;;10.20;99.90;;;;;;5016052;28;20178;-78
2022/12/29 06:32:19;;;;;;;1.70;1.20;;;10.20;99.90;;;;;;5033937;28;20178;-79
2022/12/29 06:34:45;;;;;;;2.33;1.20;;;10.20;99.90;;;;;;5016679;28;20198;-79
2022/12/29 06:37:11;;;;;;;1.70;1.10;;;10.20;99.90;;;;;;5033471;28;20280;-80
2022/12/29 06:39:37;;;;;;;1.40;1.20;;;10.20;99.90;;;;;;5033187;28;20194;-80
2022/12/29 06:42:03;;;;;;;1.93;1.17;;;10.20;99.90;;;;;;5015371;28;20174;-80
2022/12/29 06:44:29;;;;;;;1.53;1.03;;;10.20;99.90;;;;;;5033826;28;20763;-80
2022/12/29 06:46:54;;;;;;;1.30;1.20;;;10.20;99.90;;;;;;5016083;28;20170;-81
2022/12/29 06:49:20;;;;;;;2.33;1.50;;;10.20;99.90;;;;;;5015743;28;20182;-80
2022/12/29 06:51:46;;;;;;;4.00;1.50;;;10.10;99.90;;;;;;5032946;28;20675;-80
2022/12/29 06:54:12;;;;;;;2.60;1.30;;;10.10;99.90;;;;;;5014444;28;20191;-80
2022/12/29 06:56:38;;;;;;;2.27;1.33;;;10.10;99.90;;;;;;5015121;28;20170;-80
2022/12/29 06:59:03;;;;;;;1.93;1.20;;;10.20;99.90;;;;;;5015031;28;20275;-80
2022/12/29 07:01:29;;;;;;;1.60;1.17;;;10.20;99.90;;;;;;5015355;28;20265;-81
2022/12/29 07:03:55;;;;;;;1.80;1.30;;;10.10;99.90;;;;;;5032348;28;20201;-81
2022/12/29 07:06:21;;;;;;;2.13;1.40;;;10.10;99.90;;;;;;5016223;28;20261;-81
2022/12/29 07:08:47;;;;;;;2.23;1.30;;;10.20;99.90;;;;;;5015561;28;20616;-80
2022/12/29 07:11:12;;;;;;;1.83;1.50;;;10.10;99.90;;;;;;5032723;28;20213;-80
2022/12/29 07:13:38;;;;;;;2.07;1.20;;;10.20;99.90;;;;;;5014234;28;20217;-81
2022/12/29 07:16:08;;;;;;;1.97;1.50;;;10.20;99.90;;;;;;5014774;28;20190;-83
2022/12/29 07:18:34;;;;;;;2.47;1.10;;;10.20;99.90;;;;;;5033092;28;20202;-82
2022/12/29 07:20:59;;;;;;;1.60;1.20;;;10.20;99.90;;;;;;5015020;28;20228;-80
2022/12/29 07:23:25;;;;;;;2.07;1.20;;;10.10;99.90;;;;;;5031730;28;20197;-80
2022/12/29 07:26:02;;;;;;;2.73;1.40;;;10.10;99.90;;;;;;5034382;28;20170;-79
2022/12/29 07:28:28;;;;;;;3.37;1.33;;;10.10;99.90;;;;;;5016569;28;20197;-79
2022/12/29 07:30:53;;;;;;;2.50;1.30;;;10.20;99.90;;;;;;5034258;28;20186;-79
2022/12/29 07:33:19;;;;;;;3.20;1.30;;;10.10;99.90;;;;;;5014302;28;20201;-77
2022/12/29 07:35:44;;;;;;;1.83;1.30;;;10.20;99.90;;;;;;5032645;28;20190;-78
2022/12/29 07:38:10;;;;;;;2.90;1.20;;;10.20;99.90;;;;;;5018890;28;20182;-77
2022/12/29 07:40:35;;;;;;;1.30;1.20;;;10.20;99.90;;;;;;5018427;28;20198;-78
2022/12/29 07:43:01;;;;;;;1.93;1.20;;;10.20;99.90;;;;;;5018394;28;20225;-76
2022/12/29 07:45:27;;;;;;;1.53;1.30;;;10.20;99.90;;;;;;5018698;28;20566;-78
2022/12/29 07:47:52;;;;;;;2.10;1.20;;;10.30;99.90;;;;;;5035751;28;20184;-78
2022/12/29 07:50:18;;;;;;;1.50;1.30;;;10.20;99.90;;;;;;5019933;28;20563;-78
2022/12/29 07:52:44;;;;;;;1.40;1.30;;;10.10;99.90;;;;;;5033394;28;20205;-78
2022/12/29 07:55:10;;;;;;;1.83;1.20;;;10.00;99.90;;;;;;5036043;28;20209;-81
2022/12/29 07:57:36;;;;;;;1.40;1.30;;;10.00;99.90;;;;;;5020129;28;20174;-80
2022/12/29 08:00:03;;;;;;;1.90;1.40;;;9.90;99.90;;;;;;5038556;28;20239;-78
2022/12/29 08:02:29;;;;;;;1.53;1.30;;;9.80;99.90;;;;;;5023825;28;20185;-79
2022/12/29 08:04:55;;;;;;;1.53;1.30;;;9.80;99.90;;;;;;5038736;28;20576;-81
2022/12/29 08:07:20;;;;;;;2.70;1.30;;;9.80;99.90;;;;;;5040648;28;20659;-80
2022/12/29 08:09:46;;;;;;;1.37;1.10;;;9.80;99.90;;;;;;5039985;28;20178;-81
2022/12/29 08:12:12;;;;;;;2.57;1.50;;;9.90;99.90;;;;;;5017577;28;20171;-78
2022/12/29 08:14:38;;;;;;;1.80;1.40;;;9.90;99.90;;;;;;5017039;28;20241;-78
2022/12/29 08:17:04;;;;;;;2.00;1.40;;;10.00;99.90;;;;;;5017572;28;20617;-82
2022/12/29 08:19:29;;;;;;;1.57;1.30;;;10.00;99.90;;;;;;5018424;28;20237;-78
2022/12/29 08:21:55;;;;;;;1.80;1.40;;;10.00;99.90;;;;;;5035115;28;20281;-79
2022/12/29 08:24:21;;;;;;;2.03;1.10;;;9.90;99.90;;;;;;5015148;28;20298;-78
2022/12/29 08:26:46;;;;;;;2.27;1.70;;;10.00;99.90;;;;;;5014154;28;20229;-82
2022/12/29 08:29:12;;;;;;;2.00;1.30;;;10.10;99.90;;;;;;5034536;28;20185;-80
2022/12/29 08:31:37;;;;;;;2.87;1.50;;;10.10;99.90;;;;;;5017160;28;20220;-81
2022/12/29 08:34:03;;;;;;;1.57;1.40;;;10.00;99.90;;;;;;5016653;28;20217;-81
2022/12/29 08:36:30;;;;;;;3.07;1.87;;;10.10;99.90;;;;;;5017368;28;20175;-81
2022/12/29 08:38:56;;;;;;;2.50;1.40;;;10.10;99.90;;;;;;5035117;28;20207;-81
2022/12/29 08:41:22;;;;;;;2.07;1.50;;;10.20;99.90;;;;;;5017321;28;20265;-81
2022/12/29 08:43:49;;;;;;;2.00;1.50;;;10.20;99.90;;;;;;5016885;28;20202;-81
2022/12/29 08:46:15;;;;;;;2.20;1.70;;;10.20;99.90;;;;;;5017332;28;20174;-79
2022/12/29 08:48:41;;;;;;;1.90;1.50;;;10.20;99.90;;;;;;5016387;28;20556;-80
2022/12/29 08:51:07;;;;;;;4.03;1.60;;;10.10;99.90;;;;;;5018227;28;20641;-82
2022/12/29 08:53:33;;;;;;;2.27;1.80;;;10.20;99.90;;;;;;5016918;28;20210;-80
2022/12/29 08:56:00;;;;;;;2.70;1.90;;;10.20;99.90;;;;;;5017746;28;20549;-78
2022/12/29 08:58:26;;;;;;;1.70;1.60;;;10.20;99.90;;;;;;5034813;28;20288;-80
2022/12/29 09:00:53;;;;;;;2.73;1.70;;;10.20;99.90;;;;;;5034744;28;20178;-78
2022/12/29 09:03:19;;;;;;;2.63;1.90;;;10.20;99.90;;;;;;5007106;28;20202;-78
2022/12/29 09:05:51;;;;;;;2.57;1.83;;;10.20;99.90;;;;;;5034130;28;20269;-81
2022/12/29 09:08:17;;;;;;;6.80;2.80;;;10.20;99.90;;;;;;5026722;28;20182;-79
2022/12/29 09:10:43;;;;;;;3.37;1.97;;;10.30;99.90;;;;;;5017246;28;20185;-78
2022/12/29 09:13:10;;;;;;;2.17;1.50;;;10.30;99.90;;;;;;5015526;28;20237;-78
2022/12/29 09:15:36;;;;;;;2.00;1.80;;;10.30;99.90;;;;;;5016403;28;20260;-77
2022/12/29 09:18:02;;;;;;;2.03;1.77;;;10.30;99.90;;;;;;5016038;28;20186;-77
2022/12/29 09:20:28;;;;;;;2.50;1.77;;;10.30;99.90;;;;;;5016016;28;20240;-79
2022/12/29 09:22:53;;;;;;;1.93;1.60;;;10.30;99.90;;;;;;5014953;28;20194;-77
2022/12/29 09:25:19;;;;;;;2.33;1.53;;;10.30;99.90;;;;;;5015754;28;20174;-80
2022/12/29 09:27:47;;;;;;;2.80;2.23;;;10.30;99.90;;;;;;5016177;28;20166;-80
2022/12/29 09:30:14;;;;;;;2.97;1.80;;;10.30;99.90;;;;;;5013742;28;20185;-80
2022/12/29 09:32:40;;;;;;;1.80;1.70;;;10.30;99.90;;;;;;5014878;28;20182;-79
2022/12/29 09:35:06;;;;;;;3.50;1.97;;;10.30;99.90;;;;;;5015732;28;20266;-80
2022/12/29 09:37:32;;;;;;;2.03;1.70;;;10.30;99.90;;;;;;5033852;28;20175;-80
2022/12/29 09:39:58;;;;;;;3.17;1.90;;;10.30;99.90;;;;;;5015079;28;20198;-79
2022/12/29 09:42:34;;;;;;;2.93;1.70;;;10.40;99.90;;;;;;5010233;28;20240;-79
2022/12/29 09:45:27;;;;;;;3.33;1.70;;;10.40;99.90;;;;;;5013970;28;20191;-80
2022/12/29 09:47:53;;;;;;;1.87;1.60;;;10.40;99.90;;;;;;5013697;28;20159;-80
2022/12/29 09:50:35;;;;;;;3.73;1.80;;;10.40;99.90;;;;;;5033656;28;20178;-81
2022/12/29 09:53:30;;;;;;;3.03;1.87;;;10.40;99.90;;;;;;5030660;28;20203;-81
2022/12/29 09:55:59;;;;;;;2.73;2.13;;;10.40;99.90;;;;;;4996891;28;20198;-81
2022/12/29 09:58:32;;;;;;;3.67;1.90;;;10.40;99.90;;;;;;5033682;28;20216;-81
2022/12/29 10:01:13;;;;;;;3.83;2.27;;;10.40;99.90;;;;;;5028910;28;20171;-81
2022/12/29 10:03:51;;;;;;;2.83;1.70;;;10.40;99.90;;;;;;5033207;28;20217;-80
2022/12/29 10:06:35;;;;;;;2.40;1.93;;;10.40;99.90;;;;;;5014538;28;20210;-81
2022/12/29 10:09:29;;;;;;;2.40;1.67;;;10.40;99.90;;;;;;5015785;28;20170;-81
2022/12/29 10:12:13;;;;;;;3.33;1.77;;;10.40;99.90;;;;;;5014791;28;20174;-81
2022/12/29 10:15:00;;;;;;;2.10;1.70;;;10.40;99.90;;;;;;5016229;28;20210;-80
2022/12/29 10:17:48;;;;;;;3.47;1.93;;;10.40;99.90;;;;;;5015731;28;20174;-77
2022/12/29 10:20:58;;;;;;;2.50;2.03;;;10.40;99.90;;;;;;5035725;28;20198;-81
2022/12/29 10:23:40;;;;;;;3.87;1.97;;;10.40;99.90;;;;;;5028668;28;20687;-81
2022/12/29 10:26:13;;;;;;;2.30;1.90;;;10.40;99.90;;;;;;5011866;28;20185;-81
2022/12/29 10:28:44;;;;;;;3.70;2.00;;;10.30;99.90;;;;;;5012520;28;20182;-80
2022/12/29 10:31:17;;;;;;;4.30;2.07;;;10.30;99.90;;;;;;5026256;28;20281;-81
2022/12/29 10:33:43;;;;;;;2.73;1.87;;;10.30;99.90;;;;;;5022883;28;20194;-81
2022/12/29 10:36:24;;;;;;;2.17;1.90;;;10.20;99.90;;;;;;5029938;28;20626;-82
2022/12/29 10:39:19;;;;;;;2.87;1.97;;;10.30;99.90;;;;;;5017188;28;20206;-79
2022/12/29 10:42:09;;;;;;;2.13;1.93;;;10.30;99.90;;;;;;5012172;28;20265;-81
2022/12/29 10:44:35;;;;;;;2.87;1.90;;;10.30;99.90;;;;;;5012582;28;20204;-80
2022/12/29 10:47:14;;;;;;;2.93;1.77;;;10.40;99.90;;;;;;5032607;28;20179;-83
2022/12/29 10:49:42;;;;;;;4.50;1.80;;;10.50;99.90;;;;;;5028216;28;20182;-81
2022/12/29 10:52:09;;;;;;;2.33;1.90;;;10.40;99.90;;;;;;5014188;28;20213;-79
2022/12/29 10:54:56;;;;;;;2.53;1.90;;;10.50;99.90;;;;;;5014524;28;20194;-78
2022/12/29 10:57:24;;;;;;;2.40;1.93;;;10.40;99.90;;;;;;5014802;28;20186;-82
2022/12/29 10:59:50;;;;;;;1.70;1.50;;;10.40;99.90;;;;;;5016702;28;20241;-80
2022/12/29 11:02:34;;;;;;;2.67;1.70;;;10.30;99.90;;;;;;5006651;28;20612;-80
2022/12/29 11:05:02;;;;;;;2.73;1.70;;;10.30;99.90;;;;;;5031081;28;20217;-80
2022/12/29 11:07:30;;;;;;;1.70;1.50;;;10.30;99.90;;;;;;5032741;28;20546;-81
2022/12/29 11:10:15;;;;;;;1.87;1.43;;;10.30;99.90;;;;;;5014603;28;20555;-80
2022/12/29 11:12:40;;;;;;;2.70;1.40;;;10.30;99.90;;;;;;5017178;28;20225;-81
2022/12/29 11:15:07;;;;;;;2.27;1.70;;;10.30;99.90;;;;;;5018576;28;20183;-80
2022/12/29 11:17:44;;;;;;;2.03;1.40;;;10.20;99.90;;;;;;5036307;28;20178;-81
2022/12/29 11:20:28;;;;;;;2.60;1.80;;;10.20;99.90;;;;;;5016983;28;20201;-80
2022/12/29 11:22:54;;;;;;;3.80;2.30;;;10.10;99.90;;;;;;5036473;28;20171;-80
2022/12/29 11:25:19;;;;;;;9.07;5.37;;;10.10;99.90;;;;;;5018837;28;20181;-80
2022/12/29 11:28:02;;;;;;;1.60;1.50;;;10.10;99.90;;;;;;5036663;28;20186;-81
2022/12/29 11:30:30;;;;;;;1.77;1.20;;;10.10;99.90;;;;;;5018289;28;20178;-81
2022/12/29 11:32:57;;;;;;;2.33;1.40;;;10.00;99.90;;;;;;5035722;28;20170;-80
2022/12/29 11:35:36;;;;;;;4.43;3.43;;;10.00;99.90;;;;;;5035594;28;20173;-80
2022/12/29 11:38:04;;;;;;;2.67;1.97;;;10.00;99.90;;;;;;5034185;28;20187;-81
2022/12/29 11:40:31;;;;;;;1.57;1.20;;;10.00;99.90;;;;;;5018197;28;20182;-81
2022/12/29 11:43:04;;;;;;;2.63;2.00;;;9.90;99.90;;;;;;5035199;28;20175;-81
2022/12/29 11:45:36;;;;;;;2.40;1.57;;;10.00;99.90;;;;;;5015459;28;20170;-82
2022/12/29 11:48:17;;;;;;;1.73;1.17;;;9.90;99.90;;;;;;5035780;28;20236;-81
2022/12/29 11:50:51;;;;;;;2.13;1.50;;;9.90;99.90;;;;;;5035471;28;20656;-81
2022/12/29 11:53:21;;;;;;;3.00;1.60;;;9.90;99.90;;;;;;5017600;28;20199;-80
2022/12/29 11:55:56;;;;;;;1.27;1.17;;;10.00;99.90;;;;;;5035844;28;20171;-81
2022/12/29 11:58:33;;;;;;;1.27;1.17;;;10.00;99.90;;;;;;5035597;28;20215;-82
2022/12/29 12:01:27;;;;;;;1.20;0.90;;;10.00;99.90;;;;;;5035630;28;20170;-80
2022/12/29 12:04:10;;;;;;;1.47;0.97;;;10.00;99.90;;;;;;5014895;28;20186;-82
2022/12/29 12:06:43;;;;;;;2.03;1.30;;;10.20;99.90;;;;;;5017522;28;20214;-80
2022/12/29 12:09:28;;;;;;;0.60;0.60;;;10.30;99.90;;;;;;5035367;28;20174;-80
2022/12/29 12:11:55;;;;;;;1.47;0.80;;;10.30;99.90;;;;;;5035721;28;20196;-81
2022/12/29 12:14:54;;;;;;;1.27;1.10;;;10.40;99.90;;;;;;5035988;28;20226;-82
2022/12/29 12:17:59;;;;;;;1.30;1.00;;;10.40;99.90;;;;;;5035416;28;20166;-80
2022/12/29 12:20:43;;;;;;;3.03;1.10;;;10.20;99.90;;;;;;5017585;28;20205;-80
2022/12/29 12:23:33;;;;;;;1.73;1.00;;;10.30;99.90;;;;;;5032043;28;20194;-81
2022/12/29 12:26:04;;;;;;;1.20;1.10;;;10.30;99.90;;;;;;4999557;28;20171;-80
2022/12/29 12:28:59;;;;;;;2.00;1.70;;;10.20;99.90;;;;;;4997792;28;20178;-81
2022/12/29 12:31:40;;;;;;;1.40;1.17;;;10.20;99.90;;;;;;5015996;28;20645;-80
2022/12/29 12:34:16;;;;;;;4.00;2.27;;;10.20;99.90;;;;;;4997360;28;20632;-80
2022/12/29 12:36:55;;;;;;;9.20;4.77;;;10.20;99.90;;;;;;4997522;28;20229;-82
2022/12/29 12:39:38;;;;;;;3.87;2.13;;;10.10;99.90;;;;;;5015454;28;20238;-80
2022/12/29 12:42:11;;;;;;;2.13;1.20;;;10.10;99.90;;;;;;5014070;28;20180;-82
2022/12/29 12:44:54;;;;;;;1.60;1.20;;;10.10;99.90;;;;;;5034175;28;20194;-80
2022/12/29 12:48:01;;;;;;;4.17;1.53;;;10.00;99.90;;;;;;5017223;28;20183;-82
2022/12/29 12:50:48;;;;;;;1.57;1.00;;;10.10;99.90;;;;;;4954039;28;20573;-81
2022/12/29 12:53:28;;;;;;;1.43;0.83;;;10.10;99.90;;;;;;4936989;29;20193;-79
2022/12/29 12:56:12;;;;;;;2.97;2.07;;;10.20;99.90;;;;;;5011594;28;20178;-81
2022/12/29 12:58:53;;;;;;;9.23;4.23;;;10.20;99.90;;;;;;5011240;28;20201;-81
2022/12/29 13:01:31;;;;;;;2.70;1.80;;;10.30;99.90;;;;;;5027800;28;20166;-81
2022/12/29 13:04:14;;;;;;;2.17;1.97;;;10.30;99.90;;;;;;5031973;28;20273;-80
2022/12/29 13:06:56;;;;;;;2.40;1.50;;;10.40;99.90;;;;;;5028098;28;20256;-80
2022/12/29 13:09:36;;;;;;;2.37;1.10;;;10.40;99.90;;;;;;5027712;28;20296;-79
2022/12/29 13:12:02;;;;;;;2.37;1.37;;;10.30;99.90;;;;;;5030678;28;20186;-80
2022/12/29 13:14:49;;;;;;;1.57;1.07;;;10.30;99.90;;;;;;5011080;28;20206;-81
2022/12/29 13:17:30;;;;;;;2.97;1.40;;;10.20;99.90;;;;;;5008740;28;20206;-80
2022/12/29 13:20:26;;;;;;;1.73;1.27;;;10.20;99.90;;;;;;5010555;28;20261;-80
2022/12/29 13:23:02;;;;;;;1.27;1.03;;;10.20;99.90;;;;;;5033153;28;20205;-80
2022/12/29 13:25:50;;;;;;;2.23;1.20;;;10.20;99.90;;;;;;5016550;28;20173;-80
2022/12/29 13:28:33;;;;;;;1.83;1.10;;;10.20;99.90;;;;;;5032318;28;20189;-80
2022/12/29 13:31:29;;;;;;;3.07;1.57;;;10.10;99.90;;;;;;5033866;28;20253;-81
2022/12/29 13:34:19;;;;;;;3.40;1.80;;;10.10;99.90;;;;;;5012607;28;20609;-80
2022/12/29 13:36:51;;;;;;;2.33;1.40;;;10.10;99.90;;;;;;5033860;28;20181;-80
2022/12/29 13:39:26;;;;;;;3.97;1.50;;;10.10;99.90;;;;;;5034106;28;20198;-80
2022/12/29 13:41:55;;;;;;;2.90;1.67;;;10.00;99.90;;;;;;5034115;28;20292;-80
2022/12/29 13:44:29;;;;;;;2.07;1.40;;;10.00;99.90;;;;;;5032087;28;20210;-81
2022/12/29 13:46:58;;;;;;;3.37;1.33;;;10.00;99.90;;;;;;5033935;28;20174;-80
2022/12/29 13:49:24;;;;;;;3.27;1.80;;;10.00;99.90;;;;;;5015457;28;20668;-81